createdAt,value
2018-03-08T00:00:15.201Z,61.85
2018-03-08T00:00:51.767Z,62.28
2018-03-08T00:01:25.641Z,60.28
2018-03-08T00:02:02.280Z,60.28
2018-03-08T00:02:36.137Z,63.47
2018-03-08T00:03:10.015Z,61.78
2018-03-08T00:03:44.288Z,59.13
2018-03-08T00:04:19.991Z,60.88
2018-03-08T00:04:53.852Z,59.97
2018-03-08T00:05:27.726Z,59.33
2018-03-08T00:06:01.609Z,63.10
2018-03-08T00:06:35.473Z,61.63
2018-03-08T00:07:09.360Z,61.47
2018-03-08T00:07:43.230Z,57.88
2018-03-08T00:08:17.096Z,65.82
2018-03-08T00:08:50.969Z,61.20
2018-03-08T00:09:24.843Z,59.63
2018-03-08T00:09:58.717Z,60.20
2018-03-08T00:10:32.594Z,59.95
2018-03-08T00:11:06.481Z,58.83
2018-03-08T00:11:40.354Z,61.13
2018-03-08T00:12:14.225Z,61.90
2018-03-08T00:12:48.090Z,59.58
2018-03-08T00:13:24.111Z,60.95
2018-03-08T00:13:57.984Z,59.63
2018-03-08T00:14:31.850Z,60.90
2018-03-08T00:15:05.704Z,61.35
2018-03-08T00:15:39.586Z,59.10
2018-03-08T00:16:13.484Z,61.33
2018-03-08T00:16:47.358Z,62.83
2018-03-08T00:17:21.214Z,59.85
2018-03-08T00:17:55.313Z,57.75
2018-03-08T00:18:29.184Z,63.33
2018-03-08T00:19:03.053Z,58.30
2018-03-08T00:19:36.928Z,58.15
2018-03-08T00:20:10.797Z,57.05
2018-03-08T00:20:44.661Z,59.00
2018-03-08T00:21:18.538Z,61.10
2018-03-08T00:21:52.411Z,60.28
2018-03-08T00:22:26.285Z,58.92
2018-03-08T00:23:00.138Z,59.58
2018-03-08T00:23:33.993Z,58.22
2018-03-08T00:24:07.857Z,62.17
2018-03-08T00:24:44.074Z,62.75
2018-03-08T00:25:20.632Z,58.40
2018-03-08T00:25:56.876Z,58.85
2018-03-08T00:26:34.028Z,57.50
2018-03-08T00:27:10.855Z,57.08
2018-03-08T00:27:47.606Z,56.35
2018-03-08T00:28:21.457Z,63.78
2018-03-08T00:28:55.318Z,59.30
2018-03-08T00:29:31.695Z,60.70
2018-03-08T00:30:07.825Z,63.30
2018-03-08T00:30:44.428Z,59.63
2018-03-08T00:31:19.355Z,57.90
2018-03-08T00:31:56.358Z,56.35
2018-03-08T00:32:30.219Z,56.22
2018-03-08T00:33:04.092Z,63.45
2018-03-08T00:33:37.966Z,60.78
2018-03-08T00:34:11.856Z,60.75
2018-03-08T00:34:45.757Z,60.55
2018-03-08T00:35:19.620Z,58.40
2018-03-08T00:35:53.483Z,60.53
2018-03-08T00:36:27.481Z,58.83
2018-03-08T00:37:01.376Z,57.58
2018-03-08T00:37:35.230Z,62.65
2018-03-08T00:38:09.168Z,61.40
2018-03-08T00:38:43.045Z,58.28
2018-03-08T00:39:16.921Z,62.47
2018-03-08T00:39:50.793Z,61.80
2018-03-08T00:40:24.664Z,56.97
2018-03-08T00:40:58.515Z,63.38
2018-03-08T00:41:32.394Z,57.75
2018-03-08T00:42:06.291Z,58.22
2018-03-08T00:42:40.225Z,59.38
2018-03-08T00:43:14.096Z,55.55
2018-03-08T00:43:47.964Z,58.72
2018-03-08T00:44:22.039Z,58.80
2018-03-08T00:44:55.912Z,61.72
2018-03-08T00:45:29.773Z,60.17
2018-03-08T00:46:03.652Z,58.25
2018-03-08T00:46:37.507Z,59.08
2018-03-08T00:47:11.390Z,60.05
2018-03-08T00:47:45.267Z,60.00
2018-03-08T00:48:19.140Z,59.88
2018-03-08T00:48:53.022Z,58.72
2018-03-08T00:49:26.876Z,59.72
2018-03-08T00:50:01.383Z,53.65
2018-03-08T00:50:35.372Z,57.30
2018-03-08T00:51:09.239Z,59.17
2018-03-08T00:51:43.110Z,56.80
2018-03-08T00:52:17.017Z,57.08
2018-03-08T00:52:50.889Z,59.03
2018-03-08T00:53:25.179Z,58.13
2018-03-08T00:53:59.050Z,58.33
2018-03-08T00:54:32.912Z,57.80
2018-03-08T00:55:06.780Z,60.03
2018-03-08T00:55:41.948Z,57.25
2018-03-08T00:56:18.078Z,59.88
2018-03-08T00:56:51.953Z,56.97
2018-03-08T00:57:25.844Z,58.13
2018-03-08T00:58:02.044Z,56.85
2018-03-08T00:58:35.904Z,58.15
2018-03-08T00:59:09.778Z,58.10
2018-03-08T00:59:43.738Z,56.50
2018-03-08T01:00:17.608Z,60.72
2018-03-08T01:00:51.476Z,58.65
2018-03-08T01:01:25.349Z,57.35
2018-03-08T01:01:59.222Z,55.47
2018-03-08T01:02:33.113Z,56.42
2018-03-08T01:03:07.043Z,55.95
2018-03-08T01:03:40.908Z,57.25
2018-03-08T01:04:15.598Z,57.50
2018-03-08T01:04:49.476Z,53.58
2018-03-08T01:05:23.339Z,56.72
2018-03-08T01:05:57.207Z,57.85
2018-03-08T01:06:31.064Z,54.88
2018-03-08T01:07:04.913Z,59.50
2018-03-08T01:07:38.990Z,58.35
2018-03-08T01:08:12.863Z,57.75
2018-03-08T01:08:46.726Z,59.00
2018-03-08T01:09:20.599Z,58.60
2018-03-08T01:09:54.463Z,60.25
2018-03-08T01:10:28.337Z,59.33
2018-03-08T01:11:02.362Z,56.35
2018-03-08T01:11:36.216Z,57.33
2018-03-08T01:12:10.089Z,59.05
2018-03-08T01:12:43.964Z,58.42
2018-03-08T01:13:17.831Z,59.55
2018-03-08T01:13:51.736Z,58.97
2018-03-08T01:14:25.615Z,62.50
2018-03-08T01:14:59.492Z,58.92
2018-03-08T01:15:33.353Z,60.95
2018-03-08T01:16:07.224Z,60.67
2018-03-08T01:16:41.083Z,57.70
2018-03-08T01:17:15.006Z,59.50
2018-03-08T01:17:48.884Z,58.55
2018-03-08T01:18:22.750Z,58.22
2018-03-08T01:18:56.612Z,57.85
2018-03-08T01:19:30.484Z,59.08
2018-03-08T01:20:04.354Z,60.30
2018-03-08T01:20:38.222Z,59.65
2018-03-08T01:21:12.087Z,59.55
2018-03-08T01:21:45.970Z,58.97
2018-03-08T01:22:19.853Z,58.80
2018-03-08T01:22:53.734Z,60.15
2018-03-08T01:23:27.623Z,58.45
2018-03-08T01:24:01.512Z,58.72
2018-03-08T01:24:35.382Z,60.08
2018-03-08T01:25:09.234Z,59.35
2018-03-08T01:25:43.101Z,60.83
2018-03-08T01:26:16.961Z,63.92
2018-03-08T01:26:50.825Z,62.75
2018-03-08T01:27:24.688Z,63.33
2018-03-08T01:27:58.568Z,62.05
2018-03-08T01:28:32.436Z,60.28
2018-03-08T01:29:06.305Z,59.50
2018-03-08T01:29:40.189Z,60.25
2018-03-08T01:30:14.050Z,58.70
2018-03-08T01:30:47.915Z,60.85
2018-03-08T01:31:21.769Z,59.50
2018-03-08T01:31:55.637Z,60.90
2018-03-08T01:32:29.564Z,57.67
2018-03-08T01:33:03.453Z,59.13
2018-03-08T01:33:37.313Z,58.17
2018-03-08T01:34:11.160Z,60.08
2018-03-08T01:34:45.027Z,63.00
2018-03-08T01:35:18.929Z,60.30
2018-03-08T01:35:54.602Z,59.72
2018-03-08T01:36:28.467Z,56.90
2018-03-08T01:37:02.370Z,59.63
2018-03-08T01:37:36.236Z,61.00
2018-03-08T01:38:10.124Z,59.05
2018-03-08T01:38:43.983Z,62.03
2018-03-08T01:39:17.877Z,63.03
2018-03-08T01:39:52.047Z,57.95
2018-03-08T01:40:25.936Z,59.40
2018-03-08T01:40:59.823Z,58.72
2018-03-08T01:41:33.693Z,58.35
2018-03-08T01:42:07.565Z,60.10
2018-03-08T01:42:41.425Z,59.80
2018-03-08T01:43:15.299Z,59.15
2018-03-08T01:43:49.182Z,54.55
2018-03-08T01:44:23.059Z,58.28
2018-03-08T01:44:56.949Z,57.40
2018-03-08T01:45:30.824Z,61.00
2018-03-08T01:46:04.696Z,60.55
2018-03-08T01:46:38.560Z,58.22
2018-03-08T01:47:12.435Z,57.50
2018-03-08T01:47:46.513Z,55.40
2018-03-08T01:48:20.415Z,58.15
2018-03-08T01:48:54.301Z,58.90
2018-03-08T01:49:28.175Z,58.60
2018-03-08T01:50:02.031Z,60.03
2018-03-08T01:50:35.913Z,58.35
2018-03-08T01:51:09.778Z,58.92
2018-03-08T01:51:49.377Z,59.38
2018-03-08T01:52:23.249Z,55.58
2018-03-08T01:52:57.096Z,63.13
2018-03-08T01:53:31.277Z,57.00
2018-03-08T01:54:05.172Z,60.40
2018-03-08T01:54:39.101Z,59.70
2018-03-08T01:55:12.967Z,61.33
2018-03-08T01:55:46.837Z,59.15
2018-03-08T01:56:20.711Z,60.80
2018-03-08T01:56:54.610Z,60.28
2018-03-08T01:57:28.481Z,60.92
2018-03-08T01:58:04.630Z,59.60
2018-03-08T01:58:38.508Z,60.40
2018-03-08T01:59:12.384Z,59.67
2018-03-08T01:59:46.246Z,59.80
2018-03-08T02:00:20.121Z,61.53
2018-03-08T02:00:58.916Z,63.90
2018-03-08T02:01:32.795Z,60.33
2018-03-08T02:02:06.663Z,60.42
2018-03-08T02:02:40.542Z,59.95
2018-03-08T02:03:14.560Z,60.38
2018-03-08T02:03:48.457Z,61.78
2018-03-08T02:04:22.320Z,62.75
2018-03-08T02:04:56.201Z,60.88
2018-03-08T02:05:30.059Z,59.83
2018-03-08T02:06:03.925Z,58.67
2018-03-08T02:06:37.800Z,63.13
2018-03-08T02:07:14.144Z,62.17
2018-03-08T02:07:50.159Z,60.00
2018-03-08T02:08:26.630Z,61.15
2018-03-08T02:09:01.053Z,63.47
2018-03-08T02:09:37.007Z,60.30
2018-03-08T02:10:12.967Z,63.20
2018-03-08T02:10:47.856Z,61.03
2018-03-08T02:11:21.738Z,63.75
2018-03-08T02:11:57.991Z,57.90
2018-03-08T02:12:33.299Z,58.97
2018-03-08T02:13:09.038Z,58.85
2018-03-08T02:13:45.224Z,58.58
2018-03-08T02:14:22.419Z,58.92
2018-03-08T02:14:58.329Z,61.35
2018-03-08T02:15:32.192Z,56.95
2018-03-08T02:16:06.069Z,61.72
2018-03-08T02:16:40.302Z,62.97
2018-03-08T02:17:14.789Z,60.15
2018-03-08T02:17:52.043Z,62.28
2018-03-08T02:18:28.526Z,61.90
2018-03-08T02:19:06.852Z,60.95
2018-03-08T02:19:43.939Z,64.40
2018-03-08T02:20:17.808Z,63.58
2018-03-08T02:20:51.695Z,66.15
2018-03-08T02:21:27.813Z,61.78
2018-03-08T02:22:03.156Z,59.97
2018-03-08T02:22:39.445Z,60.72
2018-03-08T02:23:16.240Z,61.00
2018-03-08T02:23:52.087Z,59.08
2018-03-08T02:24:28.349Z,59.55
2018-03-08T02:25:02.284Z,59.42
2018-03-08T02:25:36.166Z,62.25
2018-03-08T02:26:12.654Z,58.00
2018-03-08T02:26:49.156Z,61.45
2018-03-08T02:27:25.151Z,59.80
2018-03-08T02:27:59.016Z,62.70
2018-03-08T02:28:32.897Z,59.17
2018-03-08T02:29:06.763Z,62.58
2018-03-08T02:29:40.780Z,63.00
2018-03-08T02:30:14.657Z,63.25
2018-03-08T02:30:48.533Z,59.60
2018-03-08T02:31:22.392Z,60.47
2018-03-08T02:31:56.260Z,60.22
2018-03-08T02:32:30.141Z,57.83
2018-03-08T02:33:04.003Z,62.15
2018-03-08T02:33:37.858Z,62.38
2018-03-08T02:34:11.709Z,63.63
2018-03-08T02:34:45.567Z,59.85
2018-03-08T02:35:19.439Z,63.75
2018-03-08T02:35:53.309Z,63.00
2018-03-08T02:36:27.188Z,62.65
2018-03-08T02:37:01.057Z,59.78
2018-03-08T02:37:34.918Z,63.60
2018-03-08T02:38:08.784Z,61.92
2018-03-08T02:38:42.653Z,61.20
2018-03-08T02:39:16.518Z,59.58
2018-03-08T02:39:50.391Z,60.70
2018-03-08T02:40:24.286Z,64.10
2018-03-08T02:40:58.146Z,59.63
2018-03-08T02:41:32.013Z,58.60
2018-03-08T02:42:05.893Z,58.08
2018-03-08T02:42:39.761Z,61.88
2018-03-08T02:43:13.635Z,61.03
2018-03-08T02:43:47.515Z,61.00
2018-03-08T02:44:23.673Z,61.47
2018-03-08T02:44:57.551Z,61.40
2018-03-08T02:45:31.437Z,59.78
2018-03-08T02:46:05.298Z,61.15
2018-03-08T02:46:39.171Z,60.75
2018-03-08T02:47:13.033Z,62.13
2018-03-08T02:47:46.906Z,63.65
2018-03-08T02:48:20.761Z,59.95
2018-03-08T02:48:54.620Z,64.68
2018-03-08T02:49:28.490Z,61.45
2018-03-08T02:50:02.374Z,62.70
2018-03-08T02:50:36.255Z,65.57
2018-03-08T02:51:12.138Z,60.80
2018-03-08T02:51:46.485Z,63.53
2018-03-08T02:52:20.350Z,63.00
2018-03-08T02:52:54.271Z,63.40
2018-03-08T02:53:28.146Z,60.85
2018-03-08T02:54:02.033Z,62.65
2018-03-08T02:54:35.954Z,63.83
2018-03-08T02:55:09.835Z,63.75
2018-03-08T02:55:43.732Z,60.60
2018-03-08T02:56:17.598Z,61.15
2018-03-08T02:56:51.467Z,63.95
2018-03-08T02:57:25.327Z,61.25
2018-03-08T02:57:59.208Z,62.80
2018-03-08T02:58:33.103Z,63.10
2018-03-08T02:59:06.975Z,64.35
2018-03-08T02:59:40.860Z,64.47
2018-03-08T03:00:14.717Z,59.33
2018-03-08T03:00:48.606Z,64.15
2018-03-08T03:01:22.485Z,65.95
2018-03-08T03:01:56.346Z,61.75
2018-03-08T03:02:30.217Z,60.95
2018-03-08T03:03:04.083Z,64.82
2018-03-08T03:03:37.958Z,63.75
2018-03-08T03:04:11.832Z,64.30
2018-03-08T03:04:45.745Z,61.63
2018-03-08T03:05:19.615Z,62.05
2018-03-08T03:05:53.504Z,63.38
2018-03-08T03:06:27.370Z,62.95
2018-03-08T03:07:01.245Z,63.90
2018-03-08T03:07:35.107Z,61.40
2018-03-08T03:08:08.961Z,63.97
2018-03-08T03:08:42.927Z,62.47
2018-03-08T03:09:16.800Z,60.72
2018-03-08T03:09:50.702Z,61.28
2018-03-08T03:10:24.545Z,63.87
2018-03-08T03:10:58.430Z,62.13
2018-03-08T03:11:32.516Z,62.33
2018-03-08T03:12:06.391Z,60.85
2018-03-08T03:12:40.279Z,66.55
2018-03-08T03:13:14.150Z,60.60
2018-03-08T03:13:48.005Z,62.85
2018-03-08T03:14:21.876Z,62.00
2018-03-08T03:14:55.751Z,62.30
2018-03-08T03:15:29.611Z,61.58
2018-03-08T03:16:03.502Z,63.30
2018-03-08T03:16:38.672Z,62.42
2018-03-08T03:17:12.596Z,62.10
2018-03-08T03:17:46.492Z,62.78
2018-03-08T03:18:20.382Z,63.55
2018-03-08T03:18:54.244Z,64.32
2018-03-08T03:19:28.136Z,61.63
2018-03-08T03:20:02.021Z,64.50
2018-03-08T03:20:35.882Z,64.20
2018-03-08T03:21:09.756Z,61.53
2018-03-08T03:21:43.659Z,58.65
2018-03-08T03:22:17.541Z,60.80
2018-03-08T03:22:51.409Z,59.88
2018-03-08T03:23:25.301Z,66.97
2018-03-08T03:23:59.155Z,65.47
2018-03-08T03:24:33.021Z,65.43
2018-03-08T03:25:06.872Z,59.63
2018-03-08T03:25:40.757Z,63.83
2018-03-08T03:26:14.630Z,58.85
2018-03-08T03:26:48.507Z,60.40
2018-03-08T03:27:22.368Z,60.72
2018-03-08T03:27:56.245Z,58.55
2018-03-08T03:28:30.128Z,61.60
2018-03-08T03:29:04.081Z,62.47
2018-03-08T03:29:37.947Z,59.20
2018-03-08T03:30:11.829Z,60.35
2018-03-08T03:30:45.767Z,57.95
2018-03-08T03:31:19.651Z,63.42
2018-03-08T03:31:53.530Z,58.90
2018-03-08T03:32:27.406Z,59.58
2018-03-08T03:33:01.270Z,61.00
2018-03-08T03:33:35.142Z,61.10
2018-03-08T03:34:09.023Z,60.28
2018-03-08T03:34:42.898Z,62.78
2018-03-08T03:35:16.769Z,61.40
2018-03-08T03:35:50.630Z,62.90
2018-03-08T03:36:24.511Z,62.05
2018-03-08T03:36:58.380Z,61.90
2018-03-08T03:37:32.248Z,61.90
2018-03-08T03:38:06.104Z,59.45
2018-03-08T03:38:39.962Z,59.08
2018-03-08T03:39:13.840Z,61.28
2018-03-08T03:39:47.987Z,58.30
2018-03-08T03:40:21.852Z,60.97
2018-03-08T03:40:55.719Z,61.60
2018-03-08T03:41:29.676Z,59.90
2018-03-08T03:42:03.545Z,60.65
2018-03-08T03:42:37.400Z,60.70
2018-03-08T03:43:11.298Z,60.72
2018-03-08T03:43:45.182Z,63.47
2018-03-08T03:44:19.052Z,57.60
2018-03-08T03:44:52.915Z,62.55
2018-03-08T03:45:26.772Z,58.28
2018-03-08T03:46:00.657Z,60.12
2018-03-08T03:46:34.549Z,58.87
2018-03-08T03:47:08.409Z,57.40
2018-03-08T03:47:42.289Z,58.08
2018-03-08T03:48:16.149Z,59.63
2018-03-08T03:48:50.010Z,57.05
2018-03-08T03:49:23.883Z,58.45
2018-03-08T03:49:57.750Z,58.90
2018-03-08T03:50:31.690Z,59.88
2018-03-08T03:51:05.556Z,58.67
2018-03-08T03:51:39.465Z,61.63
2018-03-08T03:52:14.492Z,59.88
2018-03-08T03:52:51.592Z,59.40
2018-03-08T03:53:28.259Z,58.20
2018-03-08T03:54:04.863Z,59.15
2018-03-08T03:54:41.107Z,60.35
2018-03-08T03:55:18.272Z,58.28
2018-03-08T03:55:52.138Z,59.63
2018-03-08T03:56:26.684Z,61.15
2018-03-08T03:57:03.863Z,60.95
2018-03-08T03:57:38.466Z,62.92
2018-03-08T03:58:13.202Z,58.80
2018-03-08T03:58:49.638Z,61.92
2018-03-08T03:59:25.823Z,58.75
2018-03-08T04:00:02.061Z,58.00
2018-03-08T04:00:35.933Z,61.28
2018-03-08T04:01:10.202Z,58.87
2018-03-08T04:01:46.235Z,61.58
2018-03-08T04:02:22.126Z,58.00
2018-03-08T04:02:57.459Z,59.05
2018-03-08T04:03:34.528Z,57.55
2018-03-08T04:04:11.344Z,59.65
2018-03-08T04:04:47.901Z,60.12
2018-03-08T04:05:21.788Z,58.33
2018-03-08T04:05:57.573Z,56.70
2018-03-08T04:06:33.456Z,60.10
2018-03-08T04:07:09.522Z,59.15
2018-03-08T04:07:46.122Z,57.10
2018-03-08T04:08:21.905Z,59.13
2018-03-08T04:08:58.420Z,57.70
2018-03-08T04:09:32.276Z,58.45
2018-03-08T04:10:06.176Z,57.88
2018-03-08T04:10:42.393Z,57.40
2018-03-08T04:11:18.758Z,57.55
2018-03-08T04:11:55.386Z,58.00
2018-03-08T04:12:32.415Z,59.15
2018-03-08T04:13:09.226Z,58.08
2018-03-08T04:13:46.147Z,56.35
2018-03-08T04:14:20.004Z,58.05
2018-03-08T04:14:54.102Z,57.05
2018-03-08T04:15:29.102Z,55.90
2018-03-08T04:16:03.426Z,57.67
2018-03-08T04:16:39.871Z,57.50
2018-03-08T04:17:16.322Z,58.65
2018-03-08T04:17:51.031Z,56.10
2018-03-08T04:18:27.733Z,57.50
2018-03-08T04:19:01.618Z,58.13
2018-03-08T04:19:35.505Z,55.22
2018-03-08T04:20:10.671Z,56.95
2018-03-08T04:20:46.293Z,57.90
2018-03-08T04:21:23.425Z,57.38
2018-03-08T04:21:59.249Z,55.20
2018-03-08T04:22:33.112Z,57.03
2018-03-08T04:23:07.017Z,56.05
2018-03-08T04:23:40.906Z,53.95
2018-03-08T04:24:14.771Z,55.63
2018-03-08T04:24:48.645Z,56.75
2018-03-08T04:25:22.524Z,55.20
2018-03-08T04:25:56.401Z,57.95
2018-03-08T04:26:30.302Z,56.60
2018-03-08T04:27:04.197Z,54.38
2018-03-08T04:27:38.070Z,55.42
2018-03-08T04:28:11.932Z,55.35
2018-03-08T04:28:45.809Z,58.95
2018-03-08T04:29:19.686Z,55.33
2018-03-08T04:29:53.544Z,55.75
2018-03-08T04:30:27.710Z,55.95
2018-03-08T04:31:01.593Z,54.70
2018-03-08T04:31:35.470Z,56.50
2018-03-08T04:32:09.337Z,55.58
2018-03-08T04:32:43.226Z,56.55
2018-03-08T04:33:17.109Z,56.40
2018-03-08T04:33:50.986Z,54.60
2018-03-08T04:34:24.865Z,54.75
2018-03-08T04:35:01.980Z,54.15
2018-03-08T04:35:35.843Z,53.53
2018-03-08T04:36:09.696Z,55.15
2018-03-08T04:36:43.597Z,52.83
2018-03-08T04:37:17.456Z,50.97
2018-03-08T04:37:51.316Z,53.33
2018-03-08T04:38:25.224Z,52.58
2018-03-08T04:38:59.103Z,51.55
2018-03-08T04:39:32.978Z,49.22
2018-03-08T04:40:06.841Z,50.95
2018-03-08T04:40:40.721Z,51.85
2018-03-08T04:41:14.597Z,52.45
2018-03-08T04:41:48.488Z,49.67
2018-03-08T04:42:22.361Z,49.97
2018-03-08T04:42:56.238Z,52.35
2018-03-08T04:43:30.173Z,51.85
2018-03-08T04:44:04.074Z,51.15
2018-03-08T04:44:37.950Z,48.15
2018-03-08T04:45:11.859Z,48.50
2018-03-08T04:45:45.758Z,50.63
2018-03-08T04:46:19.630Z,48.72
2018-03-08T04:46:53.513Z,51.22
2018-03-08T04:47:27.397Z,48.47
2018-03-08T04:48:01.438Z,48.63
2018-03-08T04:48:35.296Z,49.33
2018-03-08T04:49:09.185Z,48.70
2018-03-08T04:49:43.122Z,47.65
2018-03-08T04:50:16.987Z,49.40
2018-03-08T04:50:51.013Z,45.47
2018-03-08T04:51:24.883Z,48.60
2018-03-08T04:51:58.771Z,49.45
2018-03-08T04:52:32.641Z,47.47
2018-03-08T04:53:06.503Z,49.10
2018-03-08T04:53:40.381Z,51.55
2018-03-08T04:54:14.257Z,48.20
2018-03-08T04:54:48.112Z,50.47
2018-03-08T04:55:22.003Z,48.13
2018-03-08T04:55:55.873Z,51.28
2018-03-08T04:56:29.735Z,50.12
2018-03-08T04:57:03.588Z,49.83
2018-03-08T04:57:37.443Z,49.80
2018-03-08T04:58:11.548Z,49.05
2018-03-08T04:58:45.412Z,49.63
2018-03-08T04:59:19.306Z,51.08
2018-03-08T04:59:53.184Z,47.53
2018-03-08T05:00:27.056Z,52.13
2018-03-08T05:01:00.912Z,51.90
2018-03-08T05:01:34.786Z,47.42
2018-03-08T05:02:08.657Z,50.35
2018-03-08T05:02:42.540Z,47.17
2018-03-08T05:03:16.416Z,48.05
2018-03-08T05:03:50.279Z,45.90
2018-03-08T05:04:24.155Z,44.13
2018-03-08T05:04:58.030Z,47.17
2018-03-08T05:05:31.898Z,46.95
2018-03-08T05:06:05.774Z,46.58
2018-03-08T05:06:39.637Z,45.40
2018-03-08T05:07:13.506Z,46.85
2018-03-08T05:07:47.363Z,45.42
2018-03-08T05:08:21.231Z,42.47
2018-03-08T05:08:55.152Z,48.75
2018-03-08T05:09:29.047Z,44.22
2018-03-08T05:10:05.766Z,44.78
2018-03-08T05:10:41.922Z,45.35
2018-03-08T05:11:15.797Z,47.10
2018-03-08T05:11:49.718Z,44.35
2018-03-08T05:12:23.588Z,44.00
2018-03-08T05:12:57.452Z,47.38
2018-03-08T05:13:31.339Z,43.70
2018-03-08T05:14:05.211Z,44.78
2018-03-08T05:14:39.112Z,42.88
2018-03-08T05:15:13.006Z,41.35
2018-03-08T05:15:46.863Z,42.28
2018-03-08T05:16:23.269Z,43.90
2018-03-08T05:16:57.146Z,44.17
2018-03-08T05:17:31.006Z,42.08
2018-03-08T05:18:04.879Z,46.90
2018-03-08T05:18:38.746Z,42.95
2018-03-08T05:19:12.607Z,43.67
2018-03-08T05:19:46.480Z,45.22
2018-03-08T05:20:20.341Z,40.05
2018-03-08T05:20:54.216Z,42.90
2018-03-08T05:21:28.077Z,41.55
2018-03-08T05:22:01.941Z,41.72
2018-03-08T05:22:35.812Z,40.05
2018-03-08T05:23:09.677Z,45.58
2018-03-08T05:23:43.604Z,40.28
2018-03-08T05:24:17.451Z,42.67
2018-03-08T05:24:51.346Z,39.80
2018-03-08T05:25:25.239Z,37.47
2018-03-08T05:25:59.114Z,37.00
2018-03-08T05:26:32.992Z,38.53
2018-03-08T05:27:06.888Z,39.28
2018-03-08T05:27:40.783Z,37.38
2018-03-08T05:28:14.640Z,37.80
2018-03-08T05:28:48.503Z,36.58
2018-03-08T05:29:22.360Z,35.15
2018-03-08T05:29:56.237Z,36.55
2018-03-08T05:30:30.111Z,36.20
2018-03-08T05:31:04.137Z,35.35
2018-03-08T05:31:38.002Z,35.55
2018-03-08T05:32:11.857Z,34.63
2018-03-08T05:32:45.721Z,34.05
2018-03-08T05:33:19.609Z,34.22
2018-03-08T05:33:53.479Z,35.33
2018-03-08T05:34:27.347Z,33.75
2018-03-08T05:35:01.222Z,34.60
2018-03-08T05:35:35.098Z,35.25
2018-03-08T05:36:08.956Z,33.70
2018-03-08T05:36:42.809Z,36.65
2018-03-08T05:37:16.678Z,35.03
2018-03-08T05:37:50.538Z,34.38
2018-03-08T05:38:24.667Z,35.10
2018-03-08T05:38:58.565Z,34.70
2018-03-08T05:39:32.429Z,33.55
2018-03-08T05:40:06.354Z,34.47
2018-03-08T05:40:40.217Z,33.25
2018-03-08T05:41:14.100Z,33.80
2018-03-08T05:41:48.332Z,32.45
2018-03-08T05:42:24.755Z,34.25
2018-03-08T05:42:59.486Z,32.17
2018-03-08T05:43:36.336Z,33.75
2018-03-08T05:44:12.740Z,32.80
2018-03-08T05:44:49.425Z,30.80
2018-03-08T05:45:25.031Z,32.70
2018-03-08T05:45:58.933Z,32.25
2018-03-08T05:46:36.140Z,30.95
2018-03-08T05:47:11.663Z,31.37
2018-03-08T05:47:48.543Z,31.65
2018-03-08T05:48:25.535Z,30.35
2018-03-08T05:49:01.954Z,30.12
2018-03-08T05:49:37.934Z,31.85
2018-03-08T05:50:11.787Z,30.62
2018-03-08T05:50:45.660Z,30.48
2018-03-08T05:51:21.957Z,30.02
2018-03-08T05:51:58.481Z,29.20
2018-03-08T05:52:35.332Z,29.05
2018-03-08T05:53:10.548Z,27.90
2018-03-08T05:53:47.277Z,31.58
2018-03-08T05:54:23.181Z,29.98
2018-03-08T05:54:57.029Z,29.15
2018-03-08T05:55:30.876Z,30.62
2018-03-08T05:56:07.362Z,30.67
2018-03-08T05:56:41.210Z,30.58
2018-03-08T05:57:15.056Z,30.08
2018-03-08T05:57:48.985Z,28.62
2018-03-08T05:58:22.851Z,30.08
2018-03-08T05:58:56.712Z,28.65
2018-03-08T05:59:30.558Z,29.65
2018-03-08T06:00:04.424Z,29.58
2018-03-08T06:00:38.568Z,29.85
2018-03-08T06:01:18.121Z,29.45
2018-03-08T06:01:51.999Z,28.75
2018-03-08T06:02:25.857Z,28.50
2018-03-08T06:02:59.712Z,27.25
2018-03-08T06:03:33.566Z,27.77
2018-03-08T06:04:07.445Z,27.52
2018-03-08T06:04:41.331Z,26.73
2018-03-08T06:05:15.366Z,28.62
2018-03-08T06:05:49.221Z,27.87
2018-03-08T06:06:23.106Z,29.05
2018-03-08T06:06:56.957Z,28.95
2018-03-08T06:07:30.830Z,29.35
2018-03-08T06:08:04.700Z,28.92
2018-03-08T06:08:38.553Z,27.92
2018-03-08T06:09:12.436Z,27.20
2018-03-08T06:09:46.322Z,28.33
2018-03-08T06:10:20.182Z,28.27
2018-03-08T06:10:54.036Z,28.83
2018-03-08T06:11:27.919Z,27.98
2018-03-08T06:12:01.785Z,29.50
2018-03-08T06:12:35.958Z,28.42
2018-03-08T06:13:09.825Z,29.00
2018-03-08T06:13:43.688Z,26.80
2018-03-08T06:14:17.543Z,28.55
2018-03-08T06:14:51.438Z,27.30
2018-03-08T06:15:25.291Z,28.70
2018-03-08T06:15:59.145Z,25.83
2018-03-08T06:16:33.029Z,27.15
2018-03-08T06:17:06.887Z,30.15
2018-03-08T06:17:40.743Z,28.77
2018-03-08T06:18:14.593Z,26.20
2018-03-08T06:18:48.532Z,28.33
2018-03-08T06:19:22.408Z,27.27
2018-03-08T06:19:56.263Z,26.02
2018-03-08T06:20:30.123Z,29.05
2018-03-08T06:21:04.008Z,28.30
2018-03-08T06:21:37.885Z,30.40
2018-03-08T06:22:11.757Z,29.63
2018-03-08T06:22:45.624Z,26.80
2018-03-08T06:23:19.512Z,29.15
2018-03-08T06:23:53.366Z,26.77
2018-03-08T06:24:27.260Z,27.17
2018-03-08T06:25:02.162Z,24.55
2018-03-08T06:25:36.032Z,26.85
2018-03-08T06:26:10.014Z,25.15
2018-03-08T06:26:43.878Z,27.42
2018-03-08T06:27:17.891Z,25.52
2018-03-08T06:27:51.757Z,26.85
2018-03-08T06:28:25.624Z,25.50
2018-03-08T06:28:59.478Z,24.63
2018-03-08T06:29:33.329Z,25.67
2018-03-08T06:30:07.192Z,25.70
2018-03-08T06:30:41.045Z,24.02
2018-03-08T06:31:15.056Z,25.85
2018-03-08T06:31:48.944Z,24.27
2018-03-08T06:32:22.820Z,23.25
2018-03-08T06:32:56.742Z,24.27
2018-03-08T06:33:30.592Z,25.00
2018-03-08T06:34:04.441Z,26.70
2018-03-08T06:34:38.301Z,23.85
2018-03-08T06:35:12.171Z,22.92
2018-03-08T06:35:46.044Z,23.17
2018-03-08T06:36:19.928Z,23.83
2018-03-08T06:36:53.815Z,24.12
2018-03-08T06:37:27.681Z,23.20
2018-03-08T06:38:01.543Z,23.45
2018-03-08T06:38:35.404Z,23.42
2018-03-08T06:39:09.275Z,23.38
2018-03-08T06:39:43.181Z,24.80
2018-03-08T06:40:17.041Z,22.62
2018-03-08T06:40:50.917Z,25.27
2018-03-08T06:41:24.816Z,23.00
2018-03-08T06:41:58.684Z,24.77
2018-03-08T06:42:32.655Z,21.95
2018-03-08T06:43:06.548Z,21.75
2018-03-08T06:43:40.421Z,23.10
2018-03-08T06:44:14.286Z,21.42
2018-03-08T06:44:48.192Z,24.08
2018-03-08T06:45:22.257Z,22.40
2018-03-08T06:45:56.113Z,23.25
2018-03-08T06:46:29.986Z,23.65
2018-03-08T06:47:03.870Z,21.17
2018-03-08T06:47:37.734Z,22.23
2018-03-08T06:48:11.593Z,22.27
2018-03-08T06:48:45.459Z,21.95
2018-03-08T06:49:19.339Z,21.25
2018-03-08T06:49:53.238Z,22.25
2018-03-08T06:50:27.100Z,22.50
2018-03-08T06:51:00.962Z,21.58
2018-03-08T06:51:36.792Z,21.87
2018-03-08T06:52:10.683Z,23.70
2018-03-08T06:52:44.569Z,21.87
2018-03-08T06:53:19.022Z,21.55
2018-03-08T06:53:55.275Z,21.85
2018-03-08T06:54:29.166Z,22.85
2018-03-08T06:55:03.013Z,21.15
2018-03-08T06:55:36.894Z,22.05
2018-03-08T06:56:10.757Z,20.52
2018-03-08T06:56:44.664Z,20.02
2018-03-08T06:57:18.537Z,20.50
2018-03-08T06:57:52.392Z,21.67
2018-03-08T06:58:26.263Z,20.17
2018-03-08T06:59:00.114Z,20.85
2018-03-08T06:59:33.978Z,20.80
2018-03-08T07:00:07.838Z,22.08
2018-03-08T07:00:41.714Z,19.35
2018-03-08T07:01:15.577Z,20.92
2018-03-08T07:01:49.456Z,19.90
2018-03-08T07:02:23.320Z,21.50
2018-03-08T07:02:57.183Z,19.95
2018-03-08T07:03:31.050Z,20.10
2018-03-08T07:04:04.915Z,20.52
2018-03-08T07:04:38.973Z,19.27
2018-03-08T07:05:12.880Z,20.75
2018-03-08T07:05:46.763Z,19.37
2018-03-08T07:06:20.662Z,19.98
2018-03-08T07:06:54.533Z,19.73
2018-03-08T07:07:28.408Z,20.12
2018-03-08T07:08:02.267Z,19.62
2018-03-08T07:08:36.136Z,19.85
2018-03-08T07:09:10.061Z,19.65
2018-03-08T07:09:43.998Z,19.67
2018-03-08T07:10:17.895Z,19.17
2018-03-08T07:10:51.784Z,19.98
2018-03-08T07:11:25.650Z,19.90
2018-03-08T07:11:59.524Z,20.37
2018-03-08T07:12:33.416Z,20.45
2018-03-08T07:13:07.286Z,20.15
2018-03-08T07:13:41.148Z,19.20
2018-03-08T07:14:15.016Z,21.50
2018-03-08T07:14:48.868Z,20.52
2018-03-08T07:15:23.584Z,19.87
2018-03-08T07:15:57.449Z,19.37
2018-03-08T07:16:31.339Z,20.17
2018-03-08T07:17:05.213Z,20.42
2018-03-08T07:17:39.104Z,19.75
2018-03-08T07:18:12.963Z,20.65
2018-03-08T07:18:46.861Z,20.30
2018-03-08T07:19:20.709Z,19.62
2018-03-08T07:19:54.562Z,19.02
2018-03-08T07:20:28.432Z,19.80
2018-03-08T07:21:02.323Z,21.00